Time;durP1;ratioP1;P1;durP2;ratioP2;P2;SDS_P1;SDS_P2;PMS_P1;PMS_P2;Temp;Humidity;BMP_temperature;BMP_pressure;BME280_temperature;BME280_humidity;BME280_pressure;Samples;Min_cycle;Max_cycle;Signal;HPM_P1;HPM_P2
2021/04/02 00:01:17;;;;;;;11.73;7.00;;;8.10;99.90;;;;;;4981016;28;20189;-87
2021/04/02 00:03:42;;;;;;;11.90;6.87;;;7.90;99.90;;;;;;5014810;28;20637;-88
2021/04/02 00:06:11;;;;;;;9.27;6.43;;;7.80;99.90;;;;;;5014235;28;20634;-88
2021/04/02 00:08:37;;;;;;;7.67;6.07;;;7.60;99.90;;;;;;4996753;28;20197;-88
2021/04/02 00:11:10;;;;;;;10.03;6.40;;;7.50;99.90;;;;;;4980396;28;20181;-88
2021/04/02 00:13:46;;;;;;;9.50;6.83;;;7.40;99.90;;;;;;5014756;28;20181;-88
2021/04/02 00:16:15;;;;;;;8.50;7.17;;;7.30;99.90;;;;;;4996913;28;20216;-88
2021/04/02 00:18:41;;;;;;;9.17;6.57;;;7.10;99.90;;;;;;5014326;28;20673;-88
2021/04/02 00:21:08;;;;;;;6.63;5.70;;;6.90;99.90;;;;;;4996083;28;20177;-88
2021/04/02 00:23:35;;;;;;;8.07;5.20;;;6.60;99.90;;;;;;5014151;28;20185;-88
2021/04/02 00:26:03;;;;;;;7.53;5.93;;;6.40;99.90;;;;;;4996184;28;20185;-88
2021/04/02 00:28:29;;;;;;;7.20;5.23;;;6.50;99.90;;;;;;4996046;28;20196;-87
2021/04/02 00:30:57;;;;;;;7.10;6.03;;;6.50;99.90;;;;;;4996631;28;20181;-89
2021/04/02 00:33:30;;;;;;;6.17;5.33;;;6.50;99.90;;;;;;4996410;28;20188;-87
2021/04/02 00:35:57;;;;;;;6.97;5.20;;;6.50;99.90;;;;;;4996156;28;20650;-88
2021/04/02 00:38:24;;;;;;;7.27;5.70;;;6.50;99.90;;;;;;5014229;28;20315;-88
2021/04/02 00:40:53;;;;;;;7.70;5.13;;;6.40;99.90;;;;;;5014148;28;20173;-88
2021/04/02 00:43:30;;;;;;;8.53;5.97;;;6.20;99.90;;;;;;5013778;28;20239;-87
2021/04/02 00:45:56;;;;;;;7.17;4.97;;;6.10;99.90;;;;;;4996047;28;20230;-88
2021/04/02 00:48:22;;;;;;;8.07;5.20;;;6.10;99.90;;;;;;4979915;28;20565;-88
2021/04/02 00:50:52;;;;;;;10.27;5.97;;;6.20;99.90;;;;;;5013693;28;20190;-89
2021/04/02 00:53:20;;;;;;;6.43;4.73;;;6.10;99.90;;;;;;5013559;28;20185;-88
2021/04/02 00:55:47;;;;;;;9.03;6.10;;;5.90;99.90;;;;;;4996106;28;20279;-88
2021/04/02 00:58:15;;;;;;;6.67;5.33;;;6.00;99.90;;;;;;4995677;28;20217;-89
2021/04/02 01:00:42;;;;;;;5.90;4.90;;;6.00;99.90;;;;;;4996322;28;20223;-89
2021/04/02 01:03:08;;;;;;;5.70;4.77;;;6.00;99.90;;;;;;5013129;28;20177;-89
2021/04/02 01:05:41;;;;;;;7.90;4.80;;;5.90;99.90;;;;;;4996614;28;20185;-89
2021/04/02 01:08:22;;;;;;;5.97;4.80;;;6.00;99.90;;;;;;4995747;28;20276;-88
2021/04/02 01:10:50;;;;;;;8.37;4.90;;;5.90;99.90;;;;;;5013756;28;20278;-88
2021/04/02 01:13:19;;;;;;;7.83;5.70;;;6.00;99.90;;;;;;5013448;28;20196;-88
2021/04/02 01:15:56;;;;;;;6.60;5.13;;;5.90;99.90;;;;;;5013293;28;20669;-88
2021/04/02 01:18:27;;;;;;;7.77;4.90;;;5.90;99.90;;;;;;5012991;28;20283;-88
2021/04/02 01:20:58;;;;;;;5.57;4.40;;;5.90;99.90;;;;;;5013427;28;20189;-88
2021/04/02 01:23:33;;;;;;;3.97;3.57;;;5.90;99.90;;;;;;4995851;28;20184;-88
2021/04/02 01:26:23;;;;;;;3.77;3.20;;;5.90;99.90;;;;;;5013191;28;20208;-88
2021/04/02 01:29:05;;;;;;;3.43;3.00;;;5.80;99.90;;;;;;4995141;28;20193;-88
2021/04/02 01:31:31;;;;;;;4.30;3.57;;;5.70;99.90;;;;;;5013182;28;20173;-88
2021/04/02 01:33:58;;;;;;;2.87;2.60;;;5.70;99.90;;;;;;4979433;28;20645;-88
2021/04/02 01:36:26;;;;;;;6.03;3.17;;;5.60;99.90;;;;;;4979129;28;20193;-87
2021/04/02 01:38:52;;;;;;;4.60;3.00;;;5.70;99.90;;;;;;4995453;28;20301;-88
2021/04/02 01:41:21;;;;;;;2.97;2.60;;;5.60;99.90;;;;;;5012704;28;20178;-88
2021/04/02 01:43:52;;;;;;;3.73;3.10;;;5.60;99.90;;;;;;4996029;28;20196;-88
2021/04/02 01:46:20;;;;;;;2.60;2.40;;;5.60;99.90;;;;;;5012804;28;20176;-88
2021/04/02 01:48:50;;;;;;;2.70;2.47;;;5.50;99.90;;;;;;4995424;28;20613;-88
2021/04/02 01:51:17;;;;;;;3.57;2.60;;;5.50;99.90;;;;;;5013124;28;20177;-88
2021/04/02 01:53:46;;;;;;;1.97;1.87;;;5.50;99.90;;;;;;5013215;28;20288;-87
2021/04/02 01:56:13;;;;;;;3.50;2.57;;;5.50;99.90;;;;;;5012627;28;20181;-88
2021/04/02 01:58:42;;;;;;;2.47;1.90;;;5.50;99.90;;;;;;5013031;28;20244;-88
2021/04/02 02:01:09;;;;;;;2.20;2.00;;;5.30;99.90;;;;;;5012619;28;20184;-88
2021/04/02 02:03:35;;;;;;;3.90;1.67;;;5.30;99.90;;;;;;4995193;28;20185;-88
2021/04/02 02:06:03;;;;;;;2.13;1.77;;;5.20;99.90;;;;;;4995381;28;20187;-87
2021/04/02 02:08:31;;;;;;;2.20;2.00;;;5.10;99.90;;;;;;4995514;28;20208;-87
2021/04/02 02:11:09;;;;;;;1.70;1.50;;;5.10;99.90;;;;;;4995579;28;20280;-88
2021/04/02 02:13:38;;;;;;;1.70;1.60;;;5.20;99.90;;;;;;5012895;28;20225;-88
2021/04/02 02:16:06;;;;;;;1.53;1.43;;;5.10;99.90;;;;;;5012444;28;20180;-88
2021/04/02 02:18:34;;;;;;;1.67;1.57;;;4.90;99.90;;;;;;4995171;28;20582;-88
2021/04/02 02:21:00;;;;;;;1.63;1.50;;;5.00;99.90;;;;;;4979178;28;20546;-89
2021/04/02 02:23:25;;;;;;;1.60;1.50;;;5.00;99.90;;;;;;4994845;28;20194;-88
2021/04/02 02:25:51;;;;;;;1.37;1.27;;;5.00;99.90;;;;;;4995274;28;20187;-88
2021/04/02 02:28:17;;;;;;;1.90;1.80;;;5.00;99.90;;;;;;4994857;28;20555;-88
2021/04/02 02:30:44;;;;;;;1.87;1.53;;;4.90;99.90;;;;;;4995355;28;20218;-88
2021/04/02 02:33:12;;;;;;;1.70;1.60;;;5.00;99.90;;;;;;4995077;28;20189;-88
2021/04/02 02:35:38;;;;;;;2.23;1.73;;;4.80;99.90;;;;;;5012475;28;20520;-88
2021/04/02 02:38:04;;;;;;;1.60;1.50;;;4.70;99.90;;;;;;4994905;28;20315;-88
2021/04/02 02:40:33;;;;;;;2.00;1.80;;;4.70;99.90;;;;;;4994214;28;20254;-88
2021/04/02 02:43:00;;;;;;;1.77;1.50;;;4.70;99.90;;;;;;5013664;28;20186;-88
2021/04/02 02:45:27;;;;;;;2.30;2.07;;;4.70;99.90;;;;;;5015718;28;20258;-88
2021/04/02 02:47:53;;;;;;;7.07;3.27;;;4.70;99.90;;;;;;4997775;28;20239;-88
2021/04/02 02:50:23;;;;;;;3.87;2.50;;;4.50;99.90;;;;;;4998496;28;20520;-88
2021/04/02 02:52:49;;;;;;;2.10;1.90;;;4.60;99.90;;;;;;5015762;28;20604;-87
2021/04/02 02:55:16;;;;;;;3.23;2.00;;;4.60;99.90;;;;;;5027580;28;20178;-84
2021/04/02 02:57:44;;;;;;;2.23;2.07;;;4.60;99.90;;;;;;5028661;28;20230;-87
2021/04/02 03:00:16;;;;;;;2.70;2.00;;;4.60;99.90;;;;;;5016039;28;20223;-87
2021/04/02 03:02:46;;;;;;;2.10;1.90;;;4.60;99.90;;;;;;5015899;28;20180;-87
2021/04/02 03:05:15;;;;;;;1.70;1.60;;;4.70;99.90;;;;;;4998203;28;20647;-91
2021/04/02 03:08:01;;;;;;;1.93;1.67;;;4.60;99.90;;;;;;5015843;28;20709;-89
2021/04/02 03:10:31;;;;;;;2.43;1.83;;;4.60;99.90;;;;;;4997729;28;20181;-88
2021/04/02 03:13:26;;;;;;;;;;;;;;;;;;;;;
2021/04/02 03:15:58;;;;;;;2.47;1.90;;;4.80;99.90;;;;;;4986832;28;20194;-88
2021/04/02 03:18:26;;;;;;;2.53;2.03;;;4.60;99.90;;;;;;5015121;28;20262;-88
2021/04/02 03:20:53;;;;;;;2.30;2.10;;;4.60;99.90;;;;;;4997796;28;20593;-88
2021/04/02 03:23:20;;;;;;;2.77;2.10;;;4.50;99.90;;;;;;4997759;28;20188;-89
2021/04/02 03:25:48;;;;;;;2.83;2.20;;;4.60;99.90;;;;;;5015665;28;20184;-88
2021/04/02 03:28:19;;;;;;;2.40;2.20;;;4.60;99.90;;;;;;4997784;28;20185;-89
2021/04/02 03:30:47;;;;;;;10.03;4.50;;;4.60;99.90;;;;;;5015487;28;20218;-87
2021/04/02 03:33:14;;;;;;;6.90;3.03;;;4.60;99.90;;;;;;5015332;28;20234;-88
2021/04/02 03:35:42;;;;;;;16.77;6.57;;;4.60;99.90;;;;;;4997752;28;20180;-88
2021/04/02 03:38:12;;;;;;;40.63;10.57;;;4.60;99.90;;;;;;5015160;28;20226;-87
2021/04/02 03:40:39;;;;;;;23.97;8.40;;;4.60;99.90;;;;;;5015142;28;20171;-88
2021/04/02 03:43:05;;;;;;;22.07;6.77;;;4.60;99.90;;;;;;5015053;28;20200;-87
2021/04/02 03:45:32;;;;;;;14.20;3.80;;;4.70;99.90;;;;;;4997041;28;20217;-88
2021/04/02 03:48:02;;;;;;;47.93;12.70;;;4.60;99.90;;;;;;4997229;28;20239;-87
2021/04/02 03:50:33;;;;;;;10.20;3.83;;;4.60;99.90;;;;;;4997163;28;20342;-87
2021/04/02 03:53:04;;;;;;;1.50;1.40;;;4.50;99.90;;;;;;4997396;28;20184;-88
2021/04/02 03:55:31;;;;;;;4.47;2.10;;;4.40;99.90;;;;;;5013804;28;20187;-88
2021/04/02 03:57:59;;;;;;;1.50;1.40;;;4.30;99.90;;;;;;4997202;28;20214;-87
2021/04/02 04:00:30;;;;;;;14.53;3.77;;;4.30;99.90;;;;;;5006017;28;20209;-88
2021/04/02 04:02:57;;;;;;;21.40;5.93;;;4.30;99.90;;;;;;5000822;28;20190;-87
2021/04/02 04:05:25;;;;;;;84.27;16.50;;;4.30;99.90;;;;;;4995401;28;20357;-88
2021/04/02 04:07:52;;;;;;;5.63;2.63;;;4.30;99.90;;;;;;4996048;28;20570;-86
2021/04/02 04:10:19;;;;;;;21.53;4.90;;;4.30;99.90;;;;;;4996199;28;20193;-86
2021/04/02 04:12:49;;;;;;;85.93;18.57;;;4.20;99.90;;;;;;5013234;28;20646;-87
2021/04/02 04:15:16;;;;;;;9.20;3.30;;;4.20;99.90;;;;;;4995754;28;20284;-88
2021/04/02 04:17:45;;;;;;;3.00;1.70;;;4.20;99.90;;;;;;5013425;28;20222;-87
2021/04/02 04:20:12;;;;;;;2.53;1.70;;;4.10;99.90;;;;;;5012866;28;20196;-88
2021/04/02 04:22:41;;;;;;;2.23;1.80;;;4.10;99.90;;;;;;4966935;28;20195;-87
2021/04/02 04:25:08;;;;;;;8.10;2.90;;;4.10;99.90;;;;;;5003137;28;20212;-87
2021/04/02 04:27:38;;;;;;;16.87;5.03;;;4.10;99.90;;;;;;5010868;28;20243;-86
2021/04/02 04:30:05;;;;;;;2.57;1.80;;;4.10;99.90;;;;;;5014198;28;20182;-87
2021/04/02 04:32:32;;;;;;;5.73;2.57;;;4.10;99.90;;;;;;4995583;28;20187;-89
2021/04/02 04:34:59;;;;;;;6.37;2.20;;;4.10;99.90;;;;;;4995577;28;20189;-89
2021/04/02 04:37:26;;;;;;;4.13;2.23;;;4.00;99.90;;;;;;5012143;28;20217;-89
2021/04/02 04:39:53;;;;;;;3.67;2.20;;;3.90;99.90;;;;;;4978121;28;20185;-88
2021/04/02 04:42:21;;;;;;;7.03;3.40;;;3.90;99.90;;;;;;4994717;28;20181;-88
2021/04/02 04:44:53;;;;;;;10.83;4.67;;;3.80;99.90;;;;;;5012355;28;20174;-88
2021/04/02 04:47:19;;;;;;;4.63;2.43;;;3.90;99.90;;;;;;4994393;28;20642;-88
2021/04/02 04:49:45;;;;;;;13.63;4.70;;;3.90;99.90;;;;;;4977916;28;20280;-88
2021/04/02 04:52:14;;;;;;;12.57;4.50;;;3.80;99.90;;;;;;4994339;28;20194;-87
2021/04/02 04:54:45;;;;;;;5.40;3.30;;;3.80;99.90;;;;;;4991484;28;20604;-86
2021/04/02 04:57:12;;;;;;;3.57;1.70;;;3.70;99.90;;;;;;5011425;28;20256;-86
2021/04/02 04:59:40;;;;;;;3.30;2.17;;;3.60;99.90;;;;;;4991112;28;20213;-87
2021/04/02 05:02:07;;;;;;;4.10;2.50;;;3.50;99.90;;;;;;5009262;28;20184;-87
2021/04/02 05:04:33;;;;;;;3.07;2.10;;;3.40;99.90;;;;;;4994114;28;20239;-88
2021/04/02 05:07:01;;;;;;;3.40;2.63;;;3.40;99.90;;;;;;5007087;28;20185;-86
2021/04/02 05:09:28;;;;;;;5.03;3.00;;;3.40;99.90;;;;;;4993987;28;20182;-89
2021/04/02 05:11:56;;;;;;;6.80;3.30;;;4.00;99.90;;;;;;4996171;28;20187;-87
2021/04/02 05:14:23;;;;;;;6.03;2.93;;;3.50;99.90;;;;;;5007081;28;20200;-87
2021/04/02 05:16:50;;;;;;;7.17;4.10;;;3.60;99.90;;;;;;4994339;28;20189;-88
2021/04/02 05:19:18;;;;;;;4.27;3.70;;;3.70;99.90;;;;;;5012499;28;20200;-86
2021/04/02 05:21:45;;;;;;;4.40;2.93;;;3.70;99.90;;;;;;4993185;28;20292;-85
2021/04/02 05:24:11;;;;;;;6.90;3.43;;;3.70;99.90;;;;;;4981959;28;20748;-87
2021/04/02 05:26:37;;;;;;;7.97;3.17;;;3.70;99.90;;;;;;4999622;28;20196;-86
2021/04/02 05:29:04;;;;;;;10.83;6.13;;;3.70;99.90;;;;;;4993214;28;20195;-89
2021/04/02 05:31:30;;;;;;;11.43;6.50;;;3.80;99.90;;;;;;5011160;28;20183;-88
2021/04/02 05:33:56;;;;;;;6.87;4.37;;;3.90;99.90;;;;;;5012941;28;20257;-88
2021/04/02 05:36:22;;;;;;;5.77;3.70;;;3.90;99.90;;;;;;4977150;28;20183;-88
2021/04/02 05:38:49;;;;;;;16.40;6.97;;;3.90;99.90;;;;;;4992582;28;20244;-89
2021/04/02 05:41:19;;;;;;;11.07;4.43;;;3.90;99.90;;;;;;5010252;28;20202;-87
2021/04/02 05:43:56;;;;;;;9.90;4.73;;;4.00;99.90;;;;;;5010502;28;20689;-87
2021/04/02 05:46:24;;;;;;;8.70;4.10;;;4.10;99.90;;;;;;5010762;28;20179;-87
2021/04/02 05:49:02;;;;;;;5.23;3.00;;;4.10;99.90;;;;;;5011277;28;20226;-87
2021/04/02 05:51:28;;;;;;;9.00;5.37;;;4.00;99.90;;;;;;5012513;28;20242;-86
2021/04/02 05:53:58;;;;;;;48.90;19.57;;;4.10;99.90;;;;;;5011693;28;20216;-89
2021/04/02 05:56:26;;;;;;;14.07;5.47;;;4.20;99.90;;;;;;4978752;28;20897;-87
2021/04/02 05:58:53;;;;;;;14.17;5.97;;;4.30;99.90;;;;;;4995328;28;20298;-89
2021/04/02 06:01:19;;;;;;;14.93;4.30;;;4.30;99.90;;;;;;5011759;28;20185;-88
2021/04/02 06:03:45;;;;;;;6.53;3.63;;;4.30;99.90;;;;;;5012048;28;20541;-88
2021/04/02 06:06:13;;;;;;;17.63;6.13;;;4.30;99.90;;;;;;4978701;28;20203;-88
2021/04/02 06:08:46;;;;;;;31.43;10.60;;;4.30;99.90;;;;;;4995443;28;20208;-88
2021/04/02 06:11:13;;;;;;;77.87;27.60;;;4.50;99.90;;;;;;5012845;28;20192;-88
2021/04/02 06:13:39;;;;;;;48.90;19.17;;;4.70;99.90;;;;;;4995116;28;20195;-91
2021/04/02 06:16:05;;;;;;;55.17;13.80;;;4.80;99.90;;;;;;4975847;28;20277;-87
2021/04/02 06:18:39;;;;;;;34.43;8.67;;;4.80;99.90;;;;;;4997124;28;20251;-87
2021/04/02 06:21:06;;;;;;;8.97;4.80;;;4.80;99.90;;;;;;4983322;28;20211;-89
2021/04/02 06:23:34;;;;;;;7.27;4.70;;;4.70;99.90;;;;;;4997965;28;20642;-90
2021/04/02 06:26:12;;;;;;;6.10;4.03;;;4.70;99.90;;;;;;4998757;28;20242;-89
2021/04/02 06:28:40;;;;;;;9.70;4.33;;;4.60;99.90;;;;;;5016481;28;20658;-89
2021/04/02 06:31:07;;;;;;;10.30;4.60;;;4.70;99.90;;;;;;4998728;28;20195;-89
2021/04/02 06:33:37;;;;;;;9.60;4.87;;;4.80;99.90;;;;;;4998788;28;20177;-88
2021/04/02 06:36:11;;;;;;;12.13;5.70;;;4.90;99.90;;;;;;5016329;28;20174;-87
2021/04/02 06:38:43;;;;;;;6.40;4.13;;;5.10;99.90;;;;;;4998440;28;20216;-89
2021/04/02 06:41:10;;;;;;;7.60;4.13;;;5.20;99.90;;;;;;4998493;28;20515;-89
2021/04/02 06:43:56;;;;;;;9.23;4.17;;;5.30;99.90;;;;;;4998849;28;20184;-88
2021/04/02 06:46:30;;;;;;;9.27;4.87;;;5.40;99.90;;;;;;5015952;28;20267;-90
2021/04/02 06:49:08;;;;;;;10.10;4.70;;;5.40;99.90;;;;;;4998207;28;20235;-88
2021/04/02 06:51:36;;;;;;;6.50;3.93;;;5.40;99.90;;;;;;4997892;28;20653;-88
2021/04/02 06:54:03;;;;;;;7.87;4.20;;;5.30;99.90;;;;;;4997850;28;20221;-88
2021/04/02 06:56:31;;;;;;;7.13;4.83;;;5.30;99.90;;;;;;4998045;28;20188;-88
2021/04/02 06:59:00;;;;;;;5.80;4.00;;;5.30;99.90;;;;;;4997960;28;20570;-88
2021/04/02 07:01:32;;;;;;;8.00;4.10;;;5.20;99.90;;;;;;4958736;28;20193;-89
2021/04/02 07:04:00;;;;;;;10.43;4.90;;;5.30;99.90;;;;;;5015300;28;20245;-89
2021/04/02 07:06:26;;;;;;;5.70;4.13;;;5.20;99.90;;;;;;4996805;28;20173;-88
2021/04/02 07:08:53;;;;;;;10.93;4.83;;;5.20;99.90;;;;;;5012854;28;20184;-88
2021/04/02 07:11:21;;;;;;;11.73;5.00;;;5.40;99.90;;;;;;4994547;28;20205;-88
2021/04/02 07:13:52;;;;;;;7.67;4.20;;;5.60;99.90;;;;;;4994617;28;20192;-89
2021/04/02 07:16:22;;;;;;;15.03;5.93;;;5.60;99.90;;;;;;4994192;28;20208;-88
2021/04/02 07:18:49;;;;;;;10.73;5.20;;;5.80;99.90;;;;;;5011728;28;20209;-88
2021/04/02 07:21:16;;;;;;;8.63;4.93;;;5.90;99.90;;;;;;5012256;28;20260;-89
2021/04/02 07:23:43;;;;;;;8.60;4.67;;;5.90;99.90;;;;;;4996317;28;20251;-89
2021/04/02 07:26:13;;;;;;;6.37;4.17;;;5.70;99.90;;;;;;4998241;28;20184;-88
2021/04/02 07:28:45;;;;;;;9.07;4.70;;;5.40;99.90;;;;;;5014719;28;20542;-89
2021/04/02 07:31:12;;;;;;;7.37;4.50;;;5.70;99.90;;;;;;5013649;28;20276;-89
2021/04/02 07:33:41;;;;;;;6.17;4.30;;;5.70;99.90;;;;;;4995532;28;20189;-89
2021/04/02 07:36:12;;;;;;;6.33;4.27;;;5.80;99.90;;;;;;4995553;28;20242;-88
2021/04/02 07:38:39;;;;;;;6.00;3.80;;;5.80;99.90;;;;;;5012971;28;20525;-88
2021/04/02 07:41:16;;;;;;;6.23;4.23;;;5.60;99.90;;;;;;4995870;28;20185;-88
2021/04/02 07:43:53;;;;;;;3.70;2.70;;;5.80;99.90;;;;;;4995181;28;20173;-88
2021/04/02 07:46:24;;;;;;;7.77;3.60;;;5.90;99.90;;;;;;4996350;28;20657;-88
2021/04/02 07:48:55;;;;;;;10.20;3.70;;;6.20;99.90;;;;;;4995160;28;20320;-88
2021/04/02 07:51:21;;;;;;;5.60;3.20;;;6.50;99.90;;;;;;4995494;28;20189;-88
2021/04/02 07:53:47;;;;;;;4.37;2.87;;;6.50;99.90;;;;;;4980069;28;20194;-89
2021/04/02 07:56:18;;;;;;;4.70;2.83;;;6.60;99.90;;;;;;4996310;28;20185;-88
2021/04/02 07:58:52;;;;;;;5.97;2.63;;;6.30;99.90;;;;;;4996078;28;20270;-88
2021/04/02 08:01:20;;;;;;;7.77;3.40;;;6.30;99.90;;;;;;5014483;28;20659;-88
2021/04/02 08:03:47;;;;;;;4.90;2.50;;;6.60;99.90;;;;;;5014342;28;20184;-89
2021/04/02 08:06:37;;;;;;;2.43;2.03;;;6.50;96.10;;;;;;4997166;28;20178;-88
2021/04/02 08:09:08;;;;;;;4.70;3.07;;;6.50;94.40;;;;;;4996786;28;20577;-88
2021/04/02 08:11:45;;;;;;;5.10;2.40;;;6.70;96.00;;;;;;5014730;28;20205;-88
2021/04/02 08:14:13;;;;;;;3.53;2.37;;;6.90;92.90;;;;;;4980864;28;20189;-89
2021/04/02 08:16:42;;;;;;;5.53;2.77;;;7.00;93.00;;;;;;4981026;28;20283;-88
2021/04/02 08:19:14;;;;;;;7.83;4.07;;;7.20;94.20;;;;;;5014550;28;20224;-89
2021/04/02 08:21:44;;;;;;;5.67;2.87;;;7.30;93.50;;;;;;5014578;28;20264;-89
2021/04/02 08:24:11;;;;;;;3.77;2.10;;;7.00;90.30;;;;;;5014430;28;20173;-89
2021/04/02 08:26:38;;;;;;;2.43;2.00;;;6.60;86.60;;;;;;4981057;28;20232;-89
2021/04/02 08:29:06;;;;;;;4.93;2.67;;;6.60;90.50;;;;;;5013976;28;20223;-90
2021/04/02 08:31:34;;;;;;;5.50;2.50;;;6.50;93.50;;;;;;5013874;28;20200;-87
2021/04/02 08:34:00;;;;;;;4.47;2.97;;;6.70;95.50;;;;;;4994743;28;20596;-89
2021/04/02 08:36:28;;;;;;;6.83;3.03;;;6.80;94.00;;;;;;4978482;28;20574;-89
2021/04/02 08:38:54;;;;;;;4.80;2.80;;;6.90;94.40;;;;;;4994270;28;20209;-89
2021/04/02 08:41:24;;;;;;;4.87;2.90;;;7.00;95.60;;;;;;5012170;28;20481;-91
2021/04/02 08:43:51;;;;;;;5.03;3.53;;;6.90;93.90;;;;;;4978672;28;20673;-92
2021/04/02 08:46:18;;;;;;;31.43;9.63;;;6.90;90.10;;;;;;5001049;28;20190;-94
2021/04/02 08:48:49;;;;;;;3.10;2.40;;;7.10;90.70;;;;;;5008085;28;20265;-85
2021/04/02 08:51:22;;;;;;;12.60;4.50;;;7.20;89.80;;;;;;4985646;28;20192;-89
2021/04/02 08:53:47;;;;;;;19.57;6.27;;;7.60;91.30;;;;;;4996584;28;20189;-92
2021/04/02 08:56:21;;;;;;;18.93;6.70;;;7.80;90.90;;;;;;5014672;28;20236;-89
2021/04/02 08:58:47;;;;;;;14.47;4.43;;;8.00;85.40;;;;;;4997157;28;20259;-91
2021/04/02 09:01:18;;;;;;;6.87;3.00;;;8.10;83.00;;;;;;4997018;28;20204;-90
2021/04/02 09:03:45;;;;;;;3.00;2.70;;;8.10;83.00;;;;;;4999853;28;20267;-94
2021/04/02 09:06:12;;;;;;;3.57;2.70;;;7.90;82.80;;;;;;4996674;28;20195;-92
2021/04/02 09:08:39;;;;;;;6.23;2.70;;;8.10;86.20;;;;;;5013979;28;20637;-91
2021/04/02 09:11:08;;;;;;;5.23;2.63;;;7.70;87.20;;;;;;4996805;28;20181;-90
2021/04/02 09:13:41;;;;;;;8.60;3.53;;;8.10;88.60;;;;;;4996507;28;20185;-94
2021/04/02 09:16:13;;;;;;;2.97;2.53;;;8.30;82.90;;;;;;4998371;28;20232;-92
2021/04/02 09:18:52;;;;;;;8.00;2.37;;;8.10;81.80;;;;;;4998439;28;20755;-91
2021/04/02 09:21:25;;;;;;;3.73;2.07;;;7.90;82.00;;;;;;4997102;28;20181;-94
2021/04/02 09:23:53;;;;;;;2.90;1.77;;;9.90;79.10;;;;;;4996102;28;20264;-86
2021/04/02 09:26:20;;;;;;;4.57;1.50;;;6.60;66.00;;;;;;5013017;28;20185;-89
2021/04/02 09:28:46;;;;;;;3.87;2.10;;;8.00;71.90;;;;;;4995681;28;20617;-90
2021/04/02 09:31:22;;;;;;;3.10;2.13;;;8.20;72.10;;;;;;4996271;28;20234;-93
2021/04/02 09:33:56;;;;;;;3.23;2.00;;;8.00;70.00;;;;;;4996114;28;20177;-92
2021/04/02 09:36:24;;;;;;;3.63;2.07;;;8.00;73.00;;;;;;5013833;28;20170;-90
2021/04/02 09:38:50;;;;;;;2.30;1.73;;;7.80;74.70;;;;;;5013555;28;20255;-90
2021/04/02 09:41:23;;;;;;;3.57;2.23;;;8.00;69.40;;;;;;4995799;28;20223;-90
2021/04/02 09:43:50;;;;;;;5.70;2.40;;;8.20;70.60;;;;;;5013410;28;20184;-91
2021/04/02 09:46:39;;;;;;;7.10;3.07;;;8.50;73.30;;;;;;4995738;28;20177;-94
2021/04/02 09:49:11;;;;;;;2.47;1.93;;;8.80;74.10;;;;;;5013273;28;20227;-90
2021/04/02 09:51:40;;;;;;;2.10;1.40;;;8.50;70.50;;;;;;4995976;28;20424;-90
2021/04/02 09:54:07;;;;;;;2.00;1.80;;;8.50;63.00;;;;;;4998486;28;20560;-92
2021/04/02 09:56:33;;;;;;;4.07;1.83;;;8.70;61.30;;;;;;4999893;28;20280;-89
2021/04/02 09:58:59;;;;;;;5.87;2.90;;;8.80;61.80;;;;;;4999272;28;20628;-91
2021/04/02 10:01:25;;;;;;;9.60;3.70;;;9.00;65.40;;;;;;5017292;28;20199;-91
2021/04/02 10:03:51;;;;;;;4.67;2.07;;;9.40;67.90;;;;;;5016980;28;20259;-89
2021/04/02 10:06:18;;;;;;;2.13;1.87;;;9.40;66.80;;;;;;4999322;28;20673;-89
2021/04/02 10:08:44;;;;;;;2.77;2.10;;;9.10;68.90;;;;;;5016841;28;20181;-91
2021/04/02 10:11:11;;;;;;;3.63;2.07;;;9.00;68.90;;;;;;4983042;28;20181;-90
2021/04/02 10:13:36;;;;;;;3.43;2.23;;;9.20;69.70;;;;;;4983327;28;20182;-91
2021/04/02 10:16:03;;;;;;;3.70;2.30;;;9.60;68.90;;;;;;4998980;28;20189;-89
2021/04/02 10:18:29;;;;;;;4.33;2.70;;;9.70;65.20;;;;;;4998308;28;20808;-90
2021/04/02 10:20:55;;;;;;;4.03;2.10;;;9.90;63.50;;;;;;4999202;28;20243;-91
2021/04/02 10:23:26;;;;;;;4.47;2.60;;;10.00;64.00;;;;;;4967616;28;20178;-93
2021/04/02 10:25:52;;;;;;;5.13;2.83;;;10.00;62.90;;;;;;5018018;28;20692;-91
2021/04/02 10:28:20;;;;;;;3.73;2.43;;;9.80;69.20;;;;;;4996448;28;20193;-91
2021/04/02 10:30:48;;;;;;;3.87;2.63;;;9.70;66.00;;;;;;4971539;28;20189;-91
2021/04/02 10:33:14;;;;;;;5.17;2.33;;;9.70;64.40;;;;;;4976625;28;20190;-90
2021/04/02 10:35:40;;;;;;;5.53;2.90;;;9.60;64.30;;;;;;4980887;28;20181;-91
2021/04/02 10:38:05;;;;;;;4.10;2.60;;;9.70;64.10;;;;;;4974649;28;20677;-93
2021/04/02 10:40:33;;;;;;;3.33;2.23;;;9.70;65.60;;;;;;4973114;28;20217;-92
2021/04/02 10:42:59;;;;;;;5.33;2.53;;;9.60;64.60;;;;;;4982049;28;20664;-92
2021/04/02 10:45:25;;;;;;;6.10;2.30;;;9.50;62.60;;;;;;5014443;28;20181;-94
2021/04/02 10:47:51;;;;;;;3.87;2.57;;;9.50;64.70;;;;;;4966992;28;20232;-93
2021/04/02 10:50:17;;;;;;;5.43;2.80;;;9.50;64.10;;;;;;4998540;28;20177;-92
2021/04/02 10:52:42;;;;;;;5.10;2.73;;;9.60;63.10;;;;;;4973811;28;20631;-93
2021/04/02 10:55:09;;;;;;;3.93;2.93;;;9.80;66.20;;;;;;4994786;28;20240;-90
2021/04/02 10:57:35;;;;;;;5.23;2.73;;;10.20;63.40;;;;;;4979371;28;20193;-92
2021/04/02 11:00:05;;;;;;;4.87;2.80;;;10.20;62.70;;;;;;4979002;28;20174;-92
2021/04/02 11:02:30;;;;;;;6.30;3.13;;;10.10;62.70;;;;;;4996412;28;20188;-92
2021/04/02 11:04:59;;;;;;;5.43;3.47;;;10.30;62.50;;;;;;4962683;28;20634;-90
2021/04/02 11:07:25;;;;;;;5.00;2.90;;;10.50;62.20;;;;;;4994892;28;20178;-91
2021/04/02 11:09:53;;;;;;;4.93;2.73;;;10.00;61.10;;;;;;4995679;28;20178;-92
2021/04/02 11:12:19;;;;;;;3.70;2.70;;;9.80;61.90;;;;;;4978188;28;20174;-92
2021/04/02 11:14:44;;;;;;;3.37;2.80;;;9.80;60.30;;;;;;4978719;28;20181;-92
2021/04/02 11:17:10;;;;;;;4.07;2.40;;;9.40;61.70;;;;;;4962871;28;20182;-92
2021/04/02 11:19:36;;;;;;;3.63;2.67;;;9.40;62.30;;;;;;4996167;28;20256;-92
2021/04/02 11:22:02;;;;;;;6.47;2.40;;;9.70;63.00;;;;;;4994611;28;20197;-91
2021/04/02 11:24:28;;;;;;;3.80;2.47;;;9.80;59.60;;;;;;4996076;28;20186;-93
2021/04/02 11:26:55;;;;;;;3.40;2.63;;;10.00;58.00;;;;;;4996006;28;20178;-92
2021/04/02 11:29:20;;;;;;;8.37;2.20;;;9.90;58.80;;;;;;4979201;28;20182;-94
2021/04/02 11:31:46;;;;;;;3.20;2.37;;;9.80;61.30;;;;;;4996761;28;20535;-93
2021/04/02 11:34:12;;;;;;;3.83;2.23;;;10.10;61.90;;;;;;4978631;28;20579;-93
2021/04/02 11:36:37;;;;;;;3.47;2.57;;;10.20;62.00;;;;;;4978815;28;20528;-91
2021/04/02 11:39:04;;;;;;;3.50;2.20;;;10.20;59.50;;;;;;4994751;28;20249;-94
2021/04/02 11:41:29;;;;;;;2.37;2.13;;;10.10;58.40;;;;;;5001350;28;20181;-93
2021/04/02 11:43:55;;;;;;;3.00;2.00;;;10.10;56.90;;;;;;5027348;28;20262;-92
2021/04/02 11:46:21;;;;;;;4.30;2.63;;;9.80;57.20;;;;;;5018871;28;20587;-92
2021/04/02 11:48:47;;;;;;;5.43;2.33;;;10.00;58.50;;;;;;5016422;28;20237;-90
2021/04/02 11:51:12;;;;;;;3.17;1.90;;;9.90;57.80;;;;;;4997576;28;20181;-93
2021/04/02 11:53:38;;;;;;;7.07;1.73;;;10.10;57.90;;;;;;5015641;28;20216;-94
2021/04/02 11:56:05;;;;;;;5.60;1.93;;;10.10;57.40;;;;;;4997579;28;20244;-90
2021/04/02 11:58:30;;;;;;;5.07;2.10;;;9.80;58.50;;;;;;4999867;28;20569;-90
2021/04/02 12:00:56;;;;;;;2.70;1.80;;;10.20;57.70;;;;;;5001315;28;20197;-90
2021/04/02 12:03:22;;;;;;;2.07;1.87;;;10.70;59.10;;;;;;4997921;28;20177;-94
2021/04/02 12:05:48;;;;;;;3.47;1.67;;;10.70;58.10;;;;;;4964756;28;20185;-92
2021/04/02 12:08:13;;;;;;;2.20;1.60;;;10.60;55.30;;;;;;4996284;28;20185;-93
2021/04/02 12:10:39;;;;;;;1.67;1.50;;;10.60;55.50;;;;;;4997053;28;20181;-93
2021/04/02 12:13:06;;;;;;;1.60;1.50;;;10.20;55.30;;;;;;4974679;28;20550;-91
2021/04/02 12:15:31;;;;;;;2.33;1.70;;;10.60;55.60;;;;;;5013383;28;20189;-91
2021/04/02 12:17:57;;;;;;;3.10;1.53;;;10.60;53.90;;;;;;5013987;28;20248;-91
2021/04/02 12:20:23;;;;;;;2.43;1.50;;;10.30;52.30;;;;;;5013757;28;20177;-89
2021/04/02 12:22:50;;;;;;;2.63;1.50;;;10.30;54.20;;;;;;5014193;28;20215;-94
2021/04/02 12:25:16;;;;;;;4.93;1.40;;;10.20;54.40;;;;;;5014244;28;20173;-92
2021/04/02 12:27:42;;;;;;;2.13;1.40;;;10.20;54.00;;;;;;4980604;28;20200;-91
2021/04/02 12:30:14;;;;;;;2.37;1.30;;;10.70;55.50;;;;;;5013925;28;20192;-90
2021/04/02 12:32:40;;;;;;;2.97;1.60;;;11.20;54.00;;;;;;5013842;28;20669;-90
2021/04/02 12:35:07;;;;;;;2.27;1.53;;;11.50;53.60;;;;;;4980143;28;20184;-92
2021/04/02 12:37:33;;;;;;;1.53;1.20;;;11.70;54.00;;;;;;5012820;28;20192;-91
2021/04/02 12:40:01;;;;;;;2.83;1.70;;;11.50;53.40;;;;;;4996469;28;20244;-94
2021/04/02 12:42:27;;;;;;;8.03;2.40;;;11.90;52.90;;;;;;4996554;28;20543;-93
2021/04/02 12:44:53;;;;;;;2.03;1.60;;;12.20;52.90;;;;;;5013628;28;20220;-91
2021/04/02 12:47:19;;;;;;;4.37;2.10;;;12.00;52.00;;;;;;5013082;28;20255;-90
2021/04/02 12:49:45;;;;;;;3.58;1.90;;;11.30;52.50;;;;;;4979928;28;20213;-92
2021/04/02 12:52:11;;;;;;;4.15;1.92;;;12.00;51.50;;;;;;4976872;28;20177;-89
2021/04/02 12:54:40;;;;;;;5.70;2.70;;;11.80;51.40;;;;;;4996048;28;20189;-90
2021/04/02 12:57:06;;;;;;;4.10;2.45;;;12.20;52.10;;;;;;4995665;28;20189;-89
2021/04/02 12:59:32;;;;;;;4.32;1.95;;;13.00;50.00;;;;;;4979500;28;20681;-90
2021/04/02 13:01:58;;;;;;;12.02;2.17;;;12.20;50.80;;;;;;4995533;28;20188;-90